Time;durP1;ratioP1;P1;durP2;ratioP2;P2;SDS_P1;SDS_P2;PMS_P1;PMS_P2;Temp;Humidity;BMP_temperature;BMP_pressure;BME280_temperature;BME280_humidity;BME280_pressure;Samples;Min_cycle;Max_cycle;Signal;HPM_P1;HPM_P2
2023/06/07 00:00:50;;;;;;;5.88;4.30;;;18.40;99.90;;;;;;5075309;28;20204;-84
2023/06/07 00:03:16;;;;;;;5.95;4.15;;;18.40;99.90;;;;;;5075188;28;20243;-85
2023/06/07 00:05:43;;;;;;;5.82;3.85;;;18.30;99.90;;;;;;5073713;28;20180;-84
2023/06/07 00:08:09;;;;;;;4.75;4.10;;;18.30;99.90;;;;;;5073980;28;20185;-85
2023/06/07 00:10:36;;;;;;;6.97;3.72;;;18.30;99.90;;;;;;5075262;28;20616;-85
2023/06/07 00:13:03;;;;;;;7.25;4.50;;;18.20;99.90;;;;;;5073783;28;20235;-85
2023/06/07 00:15:29;;;;;;;4.95;3.90;;;18.10;99.90;;;;;;5073695;28;20268;-84
2023/06/07 00:17:59;;;;;;;6.88;4.03;;;18.00;99.90;;;;;;5073563;28;20272;-85
2023/06/07 00:20:29;;;;;;;6.85;4.13;;;18.00;99.90;;;;;;5073001;28;20222;-85
2023/06/07 00:22:58;;;;;;;4.97;4.35;;;17.90;99.90;;;;;;5074944;28;20162;-85
2023/06/07 00:25:24;;;;;;;9.93;4.18;;;18.00;99.90;;;;;;5073803;28;20177;-84
2023/06/07 00:27:52;;;;;;;5.88;4.25;;;17.90;99.90;;;;;;5074833;28;20662;-85
2023/06/07 00:30:19;;;;;;;4.97;4.15;;;17.90;99.90;;;;;;5073591;28;20673;-84
2023/06/07 00:32:45;;;;;;;5.38;4.25;;;17.90;99.90;;;;;;5073368;28;20173;-85
2023/06/07 00:35:12;;;;;;;7.35;4.25;;;17.90;99.90;;;;;;5073392;28;20199;-84
2023/06/07 00:37:38;;;;;;;8.23;4.07;;;17.90;99.90;;;;;;5075118;28;20188;-84
2023/06/07 00:40:05;;;;;;;5.25;4.07;;;17.90;99.90;;;;;;5073248;28;20181;-84
2023/06/07 00:42:32;;;;;;;9.55;3.97;;;17.80;99.90;;;;;;5074675;28;20252;-84
2023/06/07 00:44:58;;;;;;;5.45;4.30;;;17.80;99.90;;;;;;5074325;28;20169;-84
2023/06/07 00:47:25;;;;;;;5.78;4.20;;;17.80;99.90;;;;;;5073018;28;20716;-84
2023/06/07 00:49:51;;;;;;;5.20;4.43;;;17.80;99.90;;;;;;5074442;28;20177;-84
2023/06/07 00:52:17;;;;;;;6.72;4.18;;;17.70;99.90;;;;;;5074138;28;20184;-84
2023/06/07 00:54:44;;;;;;;6.47;4.10;;;17.70;99.90;;;;;;5073119;28;20173;-84
2023/06/07 00:57:10;;;;;;;7.90;4.28;;;17.60;99.90;;;;;;5074305;28;20235;-84
2023/06/07 00:59:37;;;;;;;8.02;4.07;;;17.60;99.90;;;;;;5072556;28;20285;-84
2023/06/07 01:02:04;;;;;;;7.53;4.35;;;17.60;99.90;;;;;;5072813;28;20258;-84
2023/06/07 01:04:30;;;;;;;5.28;4.45;;;17.60;99.90;;;;;;5073096;28;20208;-84
2023/06/07 01:06:57;;;;;;;6.22;3.95;;;17.60;99.90;;;;;;5072615;28;20548;-84
2023/06/07 01:09:24;;;;;;;6.20;4.43;;;17.50;99.90;;;;;;5072761;28;20270;-84
2023/06/07 01:11:53;;;;;;;5.25;4.53;;;17.50;99.90;;;;;;5072593;28;20177;-84
2023/06/07 01:14:19;;;;;;;6.40;4.68;;;17.50;99.90;;;;;;5073956;28;20524;-84
2023/06/07 01:16:50;;;;;;;6.18;4.43;;;17.50;99.90;;;;;;5074045;28;20177;-84
2023/06/07 01:19:28;;;;;;;5.15;3.53;;;17.40;99.90;;;;;;5074199;28;20168;-85
2023/06/07 01:22:00;;;;;;;8.70;4.30;;;17.40;99.90;;;;;;5073604;28;20157;-84
2023/06/07 01:24:28;;;;;;;7.93;4.68;;;17.40;99.90;;;;;;5072367;28;20173;-84
2023/06/07 01:26:57;;;;;;;6.97;4.40;;;17.40;99.90;;;;;;5072417;28;20209;-84
2023/06/07 01:29:24;;;;;;;6.47;4.57;;;17.40;99.90;;;;;;5073877;28;20233;-84
2023/06/07 01:31:52;;;;;;;5.13;4.43;;;17.40;99.90;;;;;;5072583;28;20173;-84
2023/06/07 01:34:20;;;;;;;5.15;4.00;;;17.40;99.90;;;;;;5073799;28;20223;-84
2023/06/07 01:36:47;;;;;;;4.53;4.13;;;17.40;99.90;;;;;;5072068;28;20180;-83
2023/06/07 01:39:14;;;;;;;6.00;4.90;;;17.40;99.90;;;;;;5073497;28;20608;-84
2023/06/07 01:41:42;;;;;;;7.18;4.55;;;17.40;99.90;;;;;;5072345;28;20184;-84
2023/06/07 01:44:09;;;;;;;7.00;4.65;;;17.40;99.90;;;;;;5072447;28;20231;-84
2023/06/07 01:46:36;;;;;;;8.23;4.70;;;17.40;99.90;;;;;;5073663;28;20283;-84
2023/06/07 01:49:03;;;;;;;4.68;4.15;;;17.30;99.90;;;;;;5072382;28;20177;-84
2023/06/07 01:51:29;;;;;;;9.20;4.75;;;17.30;99.90;;;;;;5072655;28;20185;-84
2023/06/07 01:53:55;;;;;;;7.78;4.82;;;17.40;99.90;;;;;;5071917;28;20266;-84
2023/06/07 01:56:35;;;;;;;7.50;4.53;;;17.30;99.90;;;;;;5072313;28;20594;-84
2023/06/07 01:59:25;;;;;;;6.18;4.53;;;17.30;99.90;;;;;;5073452;28;20228;-83
2023/06/07 02:02:04;;;;;;;6.25;4.57;;;17.30;99.90;;;;;;5500855;22;20991;-87
2023/06/07 02:04:31;;;;;;;6.82;4.47;;;17.20;99.90;;;;;;5074508;28;20254;-87
2023/06/07 02:07:04;;;;;;;6.38;4.53;;;17.30;99.90;;;;;;5074951;28;20212;-87
2023/06/07 02:09:35;;;;;;;9.63;4.88;;;17.20;99.90;;;;;;5073676;28;20226;-87
2023/06/07 02:12:02;;;;;;;8.35;4.38;;;17.20;99.90;;;;;;5072459;28;20187;-87
2023/06/07 02:14:45;;;;;;;8.23;4.20;;;17.10;99.90;;;;;;5073580;28;20181;-87
2023/06/07 02:17:12;;;;;;;8.98;4.88;;;17.20;99.90;;;;;;5073538;28;20166;-87
2023/06/07 02:19:37;;;;;;;8.05;4.55;;;17.10;99.90;;;;;;5073565;28;20227;-88
2023/06/07 02:22:06;;;;;;;10.30;4.35;;;17.10;99.90;;;;;;5074660;28;20173;-87
2023/06/07 02:24:40;;;;;;;7.25;4.38;;;17.20;99.90;;;;;;5074532;28;20165;-87
2023/06/07 02:27:09;;;;;;;6.72;4.70;;;17.20;99.90;;;;;;5073287;28;20205;-87
2023/06/07 02:29:35;;;;;;;8.05;4.63;;;17.20;99.90;;;;;;5073591;28;20291;-87
2023/06/07 02:32:01;;;;;;;5.38;4.35;;;17.20;99.90;;;;;;5072771;28;20192;-86
2023/06/07 02:34:29;;;;;;;6.32;4.38;;;17.30;99.90;;;;;;5073523;28;20173;-87
2023/06/07 02:36:55;;;;;;;7.63;4.32;;;17.30;99.90;;;;;;5073674;28;20173;-87
2023/06/07 02:39:21;;;;;;;7.20;4.68;;;17.30;99.90;;;;;;5073055;28;20216;-87
2023/06/07 02:41:47;;;;;;;6.25;4.68;;;17.30;99.90;;;;;;5073058;28;20216;-87
2023/06/07 02:44:15;;;;;;;5.80;4.20;;;17.20;99.90;;;;;;5073508;28;20177;-88
2023/06/07 02:46:40;;;;;;;7.07;4.55;;;17.20;99.90;;;;;;5073285;28;20201;-87
2023/06/07 02:49:06;;;;;;;6.97;4.68;;;17.20;99.90;;;;;;5073287;28;20182;-86
2023/06/07 02:51:32;;;;;;;7.10;4.70;;;17.20;99.90;;;;;;5073334;28;20185;-87
2023/06/07 02:53:59;;;;;;;7.13;4.78;;;17.20;99.90;;;;;;5073088;28;20616;-88
2023/06/07 02:56:26;;;;;;;5.88;4.93;;;17.10;99.90;;;;;;5073121;28;20165;-86
2023/06/07 02:58:51;;;;;;;6.38;4.80;;;17.00;99.90;;;;;;5073435;28;20260;-86
2023/06/07 03:01:18;;;;;;;6.40;4.47;;;17.10;99.90;;;;;;5073060;28;20554;-87
2023/06/07 03:03:48;;;;;;;5.65;4.78;;;17.00;99.90;;;;;;5072376;28;20233;-87
2023/06/07 03:06:15;;;;;;;6.85;4.80;;;17.10;99.90;;;;;;5076354;28;20593;-87
2023/06/07 03:08:40;;;;;;;6.85;5.03;;;17.00;99.90;;;;;;5076733;28;20205;-87
2023/06/07 03:11:06;;;;;;;6.80;4.85;;;16.90;99.90;;;;;;5076234;28;20180;-86
2023/06/07 03:13:35;;;;;;;9.32;4.80;;;17.00;99.90;;;;;;5076054;28;20216;-87
2023/06/07 03:16:01;;;;;;;5.45;4.88;;;16.90;99.90;;;;;;5076496;28;20177;-86
2023/06/07 03:18:26;;;;;;;6.78;5.15;;;16.90;99.90;;;;;;5076099;28;20226;-86
2023/06/07 03:20:52;;;;;;;6.57;5.07;;;16.90;99.90;;;;;;5076231;28;20277;-86
2023/06/07 03:23:17;;;;;;;6.65;4.68;;;16.90;99.90;;;;;;5076238;28;20181;-87
2023/06/07 03:25:45;;;;;;;5.95;5.35;;;16.90;99.90;;;;;;5075979;28;20235;-87
2023/06/07 03:28:11;;;;;;;6.28;5.18;;;17.00;99.90;;;;;;5077496;28;20642;-87
2023/06/07 03:30:37;;;;;;;6.15;4.40;;;17.00;99.90;;;;;;5076049;28;20174;-87
2023/06/07 03:33:02;;;;;;;5.25;4.55;;;17.00;99.90;;;;;;5076902;28;20660;-86
2023/06/07 03:35:30;;;;;;;8.57;4.93;;;17.00;99.90;;;;;;5076821;28;20184;-87
2023/06/07 03:37:56;;;;;;;5.72;5.07;;;17.00;99.90;;;;;;5075775;28;20234;-87
2023/06/07 03:40:21;;;;;;;5.88;5.13;;;17.00;99.90;;;;;;5075926;28;20181;-87
2023/06/07 03:42:47;;;;;;;8.30;5.40;;;16.90;99.90;;;;;;5075673;28;20181;-86
2023/06/07 03:45:13;;;;;;;6.72;5.40;;;16.80;99.90;;;;;;5075527;28;20181;-86
2023/06/07 03:47:39;;;;;;;8.30;5.50;;;16.80;99.90;;;;;;5075192;28;20213;-87
2023/06/07 03:50:06;;;;;;;6.55;5.00;;;16.80;99.90;;;;;;5075148;28;20219;-87
2023/06/07 03:52:31;;;;;;;5.05;4.55;;;16.80;99.90;;;;;;5076495;28;20181;-87
2023/06/07 03:55:04;;;;;;;5.50;4.95;;;16.80;99.90;;;;;;5075542;28;20173;-87
2023/06/07 03:57:29;;;;;;;7.55;4.80;;;16.90;99.90;;;;;;5075408;28;20170;-86
2023/06/07 03:59:57;;;;;;;6.07;4.93;;;16.80;99.90;;;;;;5075634;28;20642;-86
2023/06/07 04:02:22;;;;;;;7.85;5.03;;;16.90;99.90;;;;;;5074934;28;20232;-87
2023/06/07 04:04:49;;;;;;;5.13;4.63;;;16.90;99.90;;;;;;5074938;28;20230;-87
2023/06/07 04:07:16;;;;;;;6.93;4.97;;;17.00;99.90;;;;;;5074989;28;20212;-87
2023/06/07 04:09:42;;;;;;;5.18;4.68;;;17.00;99.90;;;;;;5075400;28;20227;-87
2023/06/07 04:12:07;;;;;;;7.93;5.30;;;16.90;99.90;;;;;;5075206;28;20216;-87
2023/06/07 04:14:33;;;;;;;7.15;4.90;;;17.00;99.90;;;;;;5075018;28;20169;-87
2023/06/07 04:17:00;;;;;;;8.13;5.13;;;17.00;99.90;;;;;;5076072;28;20254;-86
2023/06/07 04:19:26;;;;;;;7.07;5.55;;;17.00;99.90;;;;;;5074707;28;20177;-87
2023/06/07 04:21:52;;;;;;;6.63;4.80;;;17.00;99.90;;;;;;5075176;28;20181;-86
2023/06/07 04:24:19;;;;;;;6.50;4.80;;;17.00;99.90;;;;;;5074885;28;20291;-86
2023/06/07 04:26:47;;;;;;;7.82;5.57;;;17.00;99.90;;;;;;5074788;28;20300;-86
2023/06/07 04:29:14;;;;;;;8.13;5.47;;;16.80;99.90;;;;;;5074892;28;20479;-86
2023/06/07 04:31:41;;;;;;;6.18;5.38;;;16.70;99.90;;;;;;5074621;28;20177;-87
2023/06/07 04:34:09;;;;;;;9.13;5.47;;;16.80;99.90;;;;;;5074617;28;20232;-87
2023/06/07 04:36:37;;;;;;;7.90;4.95;;;16.80;99.90;;;;;;5074933;28;20204;-87
2023/06/07 04:39:05;;;;;;;7.72;5.40;;;16.80;99.90;;;;;;5074866;28;20276;-87
2023/06/07 04:41:32;;;;;;;5.80;4.85;;;16.80;99.90;;;;;;5074637;28;20184;-87
2023/06/07 04:44:05;;;;;;;6.65;5.35;;;16.90;99.90;;;;;;5074581;28;20213;-87
2023/06/07 04:46:31;;;;;;;6.68;5.10;;;16.90;99.90;;;;;;5074604;28;20209;-88
2023/06/07 04:48:58;;;;;;;7.47;5.05;;;16.90;99.90;;;;;;5074355;28;20261;-87
2023/06/07 04:51:26;;;;;;;7.07;5.30;;;16.80;99.90;;;;;;5074454;28;20177;-88
2023/06/07 04:53:58;;;;;;;6.47;5.15;;;16.80;99.90;;;;;;5074377;28;20181;-89
2023/06/07 04:56:27;;;;;;;6.05;5.35;;;16.90;99.90;;;;;;5074716;28;20169;-89
2023/06/07 04:58:55;;;;;;;6.75;5.43;;;17.00;99.90;;;;;;5074404;28;20261;-89
2023/06/07 05:01:22;;;;;;;9.52;6.45;;;16.90;99.90;;;;;;5074279;28;20169;-89
2023/06/07 05:03:49;;;;;;;7.72;5.55;;;16.80;99.90;;;;;;5073851;28;20232;-91
2023/06/07 05:06:21;;;;;;;9.02;5.65;;;16.80;99.90;;;;;;5074362;28;20205;-91
2023/06/07 05:08:47;;;;;;;7.78;6.30;;;16.70;99.90;;;;;;5074479;28;20263;-89
2023/06/07 05:11:12;;;;;;;8.32;5.65;;;16.70;99.90;;;;;;5074094;28;20673;-91
2023/06/07 05:13:38;;;;;;;6.07;5.32;;;16.60;99.90;;;;;;5073507;28;20215;-90
2023/06/07 05:16:04;;;;;;;7.05;5.90;;;16.60;99.90;;;;;;5074113;28;20180;-91
2023/06/07 05:18:31;;;;;;;6.97;6.28;;;16.60;99.90;;;;;;5074046;28;20205;-90
2023/06/07 05:20:57;;;;;;;7.63;5.65;;;16.60;99.90;;;;;;5074044;28;20218;-89
2023/06/07 05:23:25;;;;;;;13.30;6.70;;;16.70;99.90;;;;;;5074260;28;20181;-90
2023/06/07 05:25:53;;;;;;;7.22;6.53;;;16.70;99.90;;;;;;5073794;28;20176;-90
2023/06/07 05:28:19;;;;;;;9.38;5.97;;;16.80;99.90;;;;;;5073430;28;20188;-90
2023/06/07 05:30:44;;;;;;;7.60;6.13;;;16.80;99.90;;;;;;5074867;28;20169;-90
2023/06/07 05:33:11;;;;;;;9.05;6.30;;;16.80;99.90;;;;;;5073573;28;20185;-92
2023/06/07 05:35:36;;;;;;;8.05;6.35;;;16.70;99.90;;;;;;5074000;28;20181;-93
2023/06/07 05:38:02;;;;;;;6.90;6.20;;;16.70;99.90;;;;;;5074230;28;20180;-91
2023/06/07 05:40:28;;;;;;;8.10;6.30;;;16.70;99.90;;;;;;5073813;28;20185;-91
2023/06/07 05:42:56;;;;;;;8.95;5.82;;;16.80;99.90;;;;;;5073679;28;20189;-91
2023/06/07 05:45:24;;;;;;;10.23;6.78;;;16.90;99.90;;;;;;5073732;28;20173;-92
2023/06/07 05:47:49;;;;;;;7.95;6.18;;;16.90;99.90;;;;;;5073791;28;20606;-92
2023/06/07 05:50:16;;;;;;;9.35;6.25;;;17.00;99.90;;;;;;5073745;28;20177;-92
2023/06/07 05:52:42;;;;;;;7.80;6.00;;;17.00;99.90;;;;;;5073890;28;20271;-92
2023/06/07 05:55:08;;;;;;;9.10;6.00;;;17.10;99.90;;;;;;5073827;28;20184;-91
2023/06/07 05:57:35;;;;;;;11.35;7.03;;;17.20;99.90;;;;;;5073640;28;20180;-91
2023/06/07 06:00:01;;;;;;;10.65;6.13;;;17.30;99.90;;;;;;5073766;28;20523;-92
2023/06/07 06:02:29;;;;;;;9.27;6.80;;;17.30;99.90;;;;;;5073143;28;20224;-91
2023/06/07 06:04:56;;;;;;;7.45;6.53;;;17.50;99.90;;;;;;5074198;28;20177;-89
2023/06/07 06:07:23;;;;;;;7.10;5.95;;;17.50;99.90;;;;;;5073848;28;20557;-91
2023/06/07 06:09:48;;;;;;;7.25;6.43;;;17.60;99.90;;;;;;5074027;28;20228;-90
2023/06/07 06:12:14;;;;;;;9.75;6.75;;;17.70;99.90;;;;;;5073477;28;20618;-90
2023/06/07 06:14:43;;;;;;;11.68;6.38;;;17.70;99.90;;;;;;5073619;28;20177;-90
2023/06/07 06:17:08;;;;;;;7.13;6.38;;;17.80;99.90;;;;;;5073493;28;20200;-89
2023/06/07 06:19:34;;;;;;;9.25;6.85;;;17.90;99.90;;;;;;5073406;28;20173;-91
2023/06/07 06:22:00;;;;;;;9.38;6.63;;;18.00;99.90;;;;;;5073794;28;20188;-89
2023/06/07 06:24:25;;;;;;;8.80;6.45;;;18.10;99.90;;;;;;5073573;28;20230;-89
2023/06/07 06:27:03;;;;;;;7.68;6.43;;;18.10;99.90;;;;;;5073376;28;20213;-90
2023/06/07 06:29:28;;;;;;;7.88;6.20;;;18.20;99.90;;;;;;5073514;28;20177;-90
2023/06/07 06:31:54;;;;;;;14.82;6.43;;;18.20;99.90;;;;;;5073282;28;20219;-90
2023/06/07 06:34:20;;;;;;;8.93;6.50;;;18.30;99.90;;;;;;5090189;28;20274;-88
2023/06/07 06:36:46;;;;;;;9.13;5.80;;;18.30;99.90;;;;;;5074234;28;20185;-88
2023/06/07 06:39:12;;;;;;;9.40;6.43;;;18.30;99.90;;;;;;5075438;28;20230;-90
2023/06/07 06:41:38;;;;;;;7.30;5.85;;;18.30;99.90;;;;;;5077068;28;20623;-89
2023/06/07 06:44:03;;;;;;;7.65;6.00;;;18.30;99.90;;;;;;5077277;28;20268;-89
2023/06/07 06:46:29;;;;;;;9.88;6.18;;;18.40;99.90;;;;;;5077037;28;20208;-88
2023/06/07 06:48:55;;;;;;;10.35;6.78;;;18.40;99.90;;;;;;5076101;28;20161;-89
2023/06/07 06:51:21;;;;;;;8.82;6.53;;;18.50;99.90;;;;;;5076395;28;20188;-88
2023/06/07 06:53:46;;;;;;;7.60;6.38;;;18.50;99.90;;;;;;5078048;28;20180;-90
2023/06/07 06:56:12;;;;;;;7.45;6.00;;;18.60;99.90;;;;;;5077050;28;20173;-88
2023/06/07 06:58:38;;;;;;;10.57;6.25;;;18.60;99.90;;;;;;5077694;28;20211;-89
2023/06/07 07:01:05;;;;;;;12.40;6.97;;;18.70;99.90;;;;;;5076617;28;20192;-89
2023/06/07 07:03:30;;;;;;;8.75;5.70;;;18.80;99.90;;;;;;5075836;28;20291;-90
2023/06/07 07:05:56;;;;;;;14.23;6.72;;;18.90;99.90;;;;;;5076397;28;20643;-89
2023/06/07 07:08:22;;;;;;;9.15;5.65;;;19.00;99.90;;;;;;5076737;28;20180;-90
2023/06/07 07:10:48;;;;;;;9.18;6.05;;;19.10;99.90;;;;;;5076644;28;20268;-87
2023/06/07 07:13:15;;;;;;;8.10;6.20;;;19.20;99.90;;;;;;5076709;28;20173;-87
2023/06/07 07:15:41;;;;;;;7.85;6.07;;;19.20;99.90;;;;;;5076678;28;20169;-88
2023/06/07 07:18:13;;;;;;;11.77;6.53;;;19.20;99.90;;;;;;5076359;28;20179;-87
2023/06/07 07:20:38;;;;;;;6.45;5.25;;;19.30;99.90;;;;;;5076160;28;20693;-87
2023/06/07 07:23:07;;;;;;;7.57;5.38;;;19.40;99.90;;;;;;5076355;28;20181;-87
2023/06/07 07:25:33;;;;;;;10.48;5.78;;;19.50;99.90;;;;;;5077828;28;20173;-87
2023/06/07 07:28:02;;;;;;;8.13;5.70;;;19.50;99.90;;;;;;5076485;28;20291;-87
2023/06/07 07:30:27;;;;;;;8.13;6.03;;;19.60;99.90;;;;;;5076365;28;20558;-87
2023/06/07 07:32:55;;;;;;;9.18;5.90;;;19.60;99.90;;;;;;5076075;28;20181;-87
2023/06/07 07:35:20;;;;;;;12.55;5.85;;;19.50;99.90;;;;;;5076240;28;20219;-87
2023/06/07 07:37:47;;;;;;;5.93;5.22;;;19.50;99.90;;;;;;5076019;28;20177;-87
2023/06/07 07:40:13;;;;;;;7.15;5.43;;;19.50;99.90;;;;;;5076159;28;20170;-87
2023/06/07 07:42:39;;;;;;;7.45;5.38;;;19.50;99.90;;;;;;5076337;28;20184;-87
2023/06/07 07:45:05;;;;;;;8.25;5.95;;;19.50;99.90;;;;;;5076120;28;20264;-87
2023/06/07 07:47:33;;;;;;;9.27;6.20;;;19.60;99.90;;;;;;5075702;28;20209;-87
2023/06/07 07:50:00;;;;;;;10.02;5.78;;;19.70;99.90;;;;;;5074667;28;20193;-88
2023/06/07 07:52:26;;;;;;;11.60;5.40;;;19.80;99.90;;;;;;5076025;28;20181;-87
2023/06/07 07:54:52;;;;;;;10.43;5.63;;;19.90;99.90;;;;;;5075993;28;20181;-87
2023/06/07 07:57:17;;;;;;;6.72;4.97;;;19.90;99.90;;;;;;5075923;28;20624;-86
2023/06/07 07:59:43;;;;;;;8.20;5.45;;;20.00;99.90;;;;;;5075679;28;20181;-87
2023/06/07 08:02:10;;;;;;;12.90;5.20;;;20.10;99.90;;;;;;5075418;28;20260;-88
2023/06/07 08:04:35;;;;;;;5.97;5.13;;;20.20;99.90;;;;;;5075523;28;20250;-87
2023/06/07 08:07:08;;;;;;;5.65;4.68;;;20.30;99.90;;;;;;5075589;28;20655;-87
2023/06/07 08:09:34;;;;;;;5.78;4.70;;;20.30;99.90;;;;;;5075380;28;20535;-88
2023/06/07 08:11:59;;;;;;;9.93;4.72;;;20.40;99.90;;;;;;5075569;28;20177;-88
2023/06/07 08:14:25;;;;;;;5.85;4.68;;;20.40;99.90;;;;;;5075295;28;20688;-87
2023/06/07 08:16:52;;;;;;;5.25;4.57;;;20.50;99.90;;;;;;5074800;28;20181;-88
2023/06/07 08:19:18;;;;;;;7.18;4.80;;;20.60;99.90;;;;;;5074407;28;20239;-87
2023/06/07 08:21:47;;;;;;;5.93;4.45;;;20.60;99.90;;;;;;5075266;28;20173;-87
2023/06/07 08:24:12;;;;;;;7.07;4.93;;;20.70;99.90;;;;;;5075368;28;20211;-88
2023/06/07 08:26:38;;;;;;;5.13;4.47;;;20.70;99.90;;;;;;5075120;28;20247;-87
2023/06/07 08:29:05;;;;;;;7.53;4.32;;;20.70;99.90;;;;;;5075032;28;20211;-88
2023/06/07 08:31:31;;;;;;;5.90;4.10;;;20.70;99.90;;;;;;5074970;28;20230;-87
2023/06/07 08:33:57;;;;;;;5.20;4.28;;;20.70;99.90;;;;;;5074827;28;20177;-87
2023/06/07 08:36:22;;;;;;;7.78;3.88;;;20.70;99.90;;;;;;5075223;28;20634;-87
2023/06/07 08:38:48;;;;;;;4.45;3.90;;;20.90;99.90;;;;;;5074915;28;20174;-88
2023/06/07 08:41:14;;;;;;;7.38;4.05;;;20.90;99.90;;;;;;5074821;28;20680;-87
2023/06/07 08:43:41;;;;;;;7.13;3.85;;;21.00;99.90;;;;;;5074818;28;20519;-88
2023/06/07 08:46:07;;;;;;;6.88;4.18;;;20.90;99.90;;;;;;5074722;28;20177;-88
2023/06/07 08:48:33;;;;;;;7.22;3.90;;;21.10;99.90;;;;;;5074547;28;20183;-88
2023/06/07 08:51:04;;;;;;;4.70;3.63;;;21.10;99.90;;;;;;5074777;28;20180;-88
2023/06/07 08:53:37;;;;;;;6.68;3.80;;;21.10;99.90;;;;;;5074521;28;20177;-88
2023/06/07 08:56:04;;;;;;;7.13;3.95;;;21.20;99.90;;;;;;5074668;28;20170;-88
2023/06/07 08:58:32;;;;;;;5.85;4.00;;;21.20;99.90;;;;;;5074560;28;20192;-88
2023/06/07 09:00:59;;;;;;;5.97;3.97;;;21.30;99.90;;;;;;5074489;28;20173;-89
2023/06/07 09:03:26;;;;;;;7.03;4.00;;;21.40;99.90;;;;;;5074252;28;20229;-88
2023/06/07 09:05:55;;;;;;;6.47;4.00;;;21.40;99.90;;;;;;5074544;28;20266;-88
2023/06/07 09:08:21;;;;;;;8.25;3.67;;;21.40;99.10;;;;;;5074342;28;20205;-88
2023/06/07 09:10:47;;;;;;;9.90;3.88;;;21.40;99.90;;;;;;5074270;28;20173;-88
2023/06/07 09:13:19;;;;;;;4.68;3.65;;;21.40;99.90;;;;;;5073738;28;20203;-88
2023/06/07 09:15:52;;;;;;;5.10;3.80;;;21.40;99.80;;;;;;5074584;28;20223;-88
2023/06/07 09:18:43;;;;;;;4.50;3.55;;;21.40;99.20;;;;;;5075490;28;20169;-88
2023/06/07 09:21:20;;;;;;;4.55;3.72;;;21.50;98.80;;;;;;5074217;28;20181;-89
2023/06/07 09:23:46;;;;;;;8.25;4.10;;;21.60;98.80;;;;;;5074165;28;20331;-87
2023/06/07 09:26:11;;;;;;;5.32;3.75;;;21.70;99.50;;;;;;5074214;28;20263;-88
2023/06/07 09:28:38;;;;;;;6.25;3.55;;;21.80;98.50;;;;;;5074134;28;20193;-88
2023/06/07 09:31:04;;;;;;;4.40;3.60;;;21.80;98.40;;;;;;5074285;28;20231;-88
2023/06/07 09:33:34;;;;;;;7.45;3.95;;;21.80;99.40;;;;;;5073743;28;20189;-88
2023/06/07 09:36:12;;;;;;;3.65;3.35;;;21.90;98.20;;;;;;5073635;28;20252;-87
2023/06/07 09:38:39;;;;;;;3.88;3.35;;;21.90;98.50;;;;;;5074158;28;20211;-87
2023/06/07 09:41:06;;;;;;;5.65;3.53;;;22.00;97.60;;;;;;5074222;28;20200;-89
2023/06/07 09:43:50;;;;;;;5.70;3.90;;;22.00;97.00;;;;;;5073857;28;20233;-88
2023/06/07 09:46:20;;;;;;;5.03;3.78;;;22.00;97.00;;;;;;5073868;28;20176;-88
2023/06/07 09:48:51;;;;;;;5.30;3.90;;;22.00;98.90;;;;;;5073816;28;20183;-87
2023/06/07 09:51:20;;;;;;;10.68;4.03;;;22.00;98.40;;;;;;5054374;28;20181;-88
2023/06/07 09:53:51;;;;;;;6.00;3.53;;;22.10;98.10;;;;;;5053890;28;20182;-88
2023/06/07 09:56:17;;;;;;;8.65;3.42;;;22.10;99.20;;;;;;5054097;28;20264;-86
2023/06/07 09:58:49;;;;;;;6.38;3.63;;;22.10;98.30;;;;;;5054032;28;20696;-88
2023/06/07 10:01:30;;;;;;;5.13;3.10;;;22.20;98.30;;;;;;5053702;28;20604;-88
2023/06/07 10:03:55;;;;;;;5.22;3.60;;;22.30;99.00;;;;;;5053430;28;20690;-88
2023/06/07 10:06:23;;;;;;;5.85;3.30;;;22.30;97.50;;;;;;5053792;28;20205;-88
2023/06/07 10:08:50;;;;;;;3.67;3.25;;;22.30;97.60;;;;;;5053896;28;20235;-88
2023/06/07 10:11:17;;;;;;;7.30;3.35;;;22.40;98.00;;;;;;5053410;28;20178;-88
2023/06/07 10:13:45;;;;;;;3.78;2.88;;;22.40;97.50;;;;;;5055192;28;20185;-88
2023/06/07 10:16:13;;;;;;;5.82;3.08;;;22.40;97.40;;;;;;5057638;28;20630;-88
2023/06/07 10:19:05;;;;;;;5.05;3.50;;;22.40;98.00;;;;;;5057604;28;20269;-89
2023/06/07 10:21:34;;;;;;;4.55;3.10;;;22.50;97.30;;;;;;5057827;28;20180;-88
2023/06/07 10:24:10;;;;;;;4.63;3.45;;;22.60;96.70;;;;;;5057287;28;20181;-89
2023/06/07 10:26:55;;;;;;;7.53;3.72;;;22.70;96.60;;;;;;5057559;28;20651;-88
2023/06/07 10:30:00;;;;;;;5.72;3.33;;;22.60;94.80;;;;;;5057658;28;20283;-90
2023/06/07 10:32:36;;;;;;;4.15;2.97;;;22.60;95.00;;;;;;5057578;28;20170;-89
2023/06/07 10:35:03;;;;;;;10.00;2.85;;;22.60;96.00;;;;;;5057480;28;20682;-88
2023/06/07 10:37:32;;;;;;;4.45;2.88;;;22.60;96.50;;;;;;5057474;28;20186;-89
2023/06/07 10:40:10;;;;;;;4.32;3.20;;;22.70;97.30;;;;;;5057460;28;20178;-90
2023/06/07 10:42:44;;;;;;;3.80;2.88;;;22.80;96.10;;;;;;5057156;28;20178;-88
2023/06/07 10:45:15;;;;;;;3.92;3.20;;;22.70;94.30;;;;;;5056975;28;20246;-89
2023/06/07 10:47:41;;;;;;;5.35;3.60;;;22.80;94.20;;;;;;5057402;28;20304;-89
2023/06/07 10:50:07;;;;;;;5.50;2.92;;;22.80;95.40;;;;;;5068818;28;20220;-90
2023/06/07 10:52:33;;;;;;;5.85;3.10;;;22.80;96.00;;;;;;5076929;28;20177;-90
2023/06/07 10:54:59;;;;;;;4.15;2.90;;;22.90;95.70;;;;;;5078004;28;20399;-89
2023/06/07 10:57:36;;;;;;;5.47;2.97;;;22.90;94.70;;;;;;5076725;28;20188;-89
2023/06/07 11:00:31;;;;;;;5.68;2.90;;;22.90;93.70;;;;;;5077893;28;20513;-90
2023/06/07 11:03:10;;;;;;;4.38;3.28;;;23.00;95.40;;;;;;5076644;28;20228;-89
2023/06/07 11:05:57;;;;;;;6.30;3.08;;;23.00;96.30;;;;;;5077780;28;20161;-89
2023/06/07 11:08:31;;;;;;;6.70;3.10;;;23.10;95.50;;;;;;5076830;28;20204;-89
2023/06/07 11:11:01;;;;;;;3.78;3.08;;;23.20;94.20;;;;;;5076873;28;20231;-88
2023/06/07 11:13:39;;;;;;;4.45;3.00;;;23.20;93.80;;;;;;5076857;28;20180;-88
2023/06/07 11:16:23;;;;;;;3.67;2.80;;;23.30;93.70;;;;;;5076666;28;20203;-88
2023/06/07 11:18:57;;;;;;;3.58;3.00;;;23.30;94.40;;;;;;5076581;28;20177;-89
2023/06/07 11:21:30;;;;;;;4.10;2.78;;;23.30;93.60;;;;;;5076482;28;20223;-89
2023/06/07 11:24:11;;;;;;;5.47;3.15;;;23.40;95.00;;;;;;5075672;28;20180;-89
2023/06/07 11:26:37;;;;;;;5.70;2.97;;;23.40;92.00;;;;;;5075280;28;20216;-88
2023/06/07 11:29:15;;;;;;;4.53;3.08;;;23.40;93.10;;;;;;5076599;28;20590;-89
2023/06/07 11:31:41;;;;;;;5.10;3.13;;;23.30;93.40;;;;;;5075951;28;20184;-89
2023/06/07 11:34:12;;;;;;;6.70;3.40;;;23.30;92.90;;;;;;5072489;28;20522;-89
2023/06/07 11:36:37;;;;;;;3.70;2.92;;;23.40;91.90;;;;;;5071459;28;20204;-90
2023/06/07 11:39:08;;;;;;;4.95;3.00;;;23.40;91.80;;;;;;5076013;28;20180;-89
2023/06/07 11:41:40;;;;;;;4.15;2.60;;;23.40;91.70;;;;;;5075709;28;20650;-89
2023/06/07 11:44:06;;;;;;;6.43;2.97;;;23.50;93.10;;;;;;5075773;28;20185;-89
2023/06/07 11:46:36;;;;;;;5.93;3.88;;;23.40;93.20;;;;;;5076161;28;20242;-90
2023/06/07 11:49:14;;;;;;;4.20;2.70;;;23.40;93.90;;;;;;5075666;28;20215;-89
2023/06/07 11:51:40;;;;;;;4.47;3.10;;;23.40;93.20;;;;;;5075726;28;20174;-89
2023/06/07 11:54:08;;;;;;;4.15;3.00;;;23.40;94.60;;;;;;5075819;28;20181;-89
2023/06/07 11:56:37;;;;;;;5.18;2.85;;;23.30;94.30;;;;;;5075887;28;20239;-89
2023/06/07 11:59:04;;;;;;;5.07;3.45;;;23.20;94.00;;;;;;5075755;28;20184;-89
2023/06/07 12:01:31;;;;;;;5.28;3.08;;;23.20;96.00;;;;;;5075763;28;20208;-89
2023/06/07 12:03:57;;;;;;;5.15;3.40;;;23.20;94.90;;;;;;5074729;28;20220;-87
2023/06/07 12:06:26;;;;;;;5.40;3.60;;;23.10;94.60;;;;;;5075163;28;20176;-88
2023/06/07 12:08:52;;;;;;;6.00;3.40;;;23.20;95.50;;;;;;5076731;28;20565;-89
2023/06/07 12:11:23;;;;;;;4.65;3.50;;;23.10;95.60;;;;;;5075366;28;20180;-88
2023/06/07 12:13:53;;;;;;;4.05;3.35;;;23.10;95.50;;;;;;5075240;28;20177;-89
2023/06/07 12:16:21;;;;;;;6.80;3.83;;;23.10;96.00;;;;;;5075282;28;20201;-89
2023/06/07 12:18:52;;;;;;;13.45;4.18;;;23.10;95.40;;;;;;5074632;28;20600;-90
2023/06/07 12:21:18;;;;;;;7.30;3.53;;;23.10;95.90;;;;;;5075431;28;20184;-89
2023/06/07 12:23:53;;;;;;;9.38;3.97;;;23.00;95.60;;;;;;5075129;28;20500;-88
2023/06/07 12:26:20;;;;;;;6.25;3.53;;;23.10;96.20;;;;;;5076218;28;20157;-89
2023/06/07 12:28:48;;;;;;;5.88;3.60;;;23.20;95.50;;;;;;5075316;28;20192;-89
2023/06/07 12:31:18;;;;;;;5.22;3.92;;;23.20;96.50;;;;;;5075079;28;20177;-89
2023/06/07 12:34:05;;;;;;;5.72;4.10;;;23.20;95.80;;;;;;5075015;28;20498;-88
2023/06/07 12:36:33;;;;;;;6.45;3.90;;;23.30;95.00;;;;;;5074770;28;20185;-90
2023/06/07 12:39:08;;;;;;;6.50;4.10;;;23.30;96.10;;;;;;5075142;28;20177;-89
2023/06/07 12:41:34;;;;;;;7.00;4.13;;;23.40;95.40;;;;;;5074449;28;20177;-89
2023/06/07 12:44:03;;;;;;;4.90;4.20;;;23.40;96.50;;;;;;5074685;28;20272;-90
2023/06/07 12:46:32;;;;;;;6.68;3.97;;;23.30;95.40;;;;;;5074712;28;20197;-90
2023/06/07 12:48:58;;;;;;;6.07;3.72;;;23.20;95.20;;;;;;5074602;28;20177;-89
2023/06/07 12:51:25;;;;;;;5.60;4.18;;;23.20;96.50;;;;;;5074768;28;20181;-89